Time;durP1;ratioP1;P1;durP2;ratioP2;P2;SDS_P1;SDS_P2;PMS_P1;PMS_P2;Temp;Humidity;BMP_temperature;BMP_pressure;BME280_temperature;BME280_humidity;BME280_pressure;Samples;Min_cycle;Max_cycle;Signal;HPM_P1;HPM_P2
2021/08/21 00:00:08;;;;;;;16.13;14.20;;;15.10;99.90;;;;;;2089621;28;20028;-73
2021/08/21 00:01:16;;;;;;;16.13;14.27;;;15.10;99.90;;;;;;2089498;28;20036;-72
2021/08/21 00:02:16;;;;;;;18.67;14.82;;;15.10;99.90;;;;;;2084676;28;20017;-74
2021/08/21 00:03:17;;;;;;;16.27;14.48;;;15.10;99.90;;;;;;2088402;28;20056;-72
2021/08/21 00:04:17;;;;;;;19.30;15.90;;;15.10;99.90;;;;;;2098474;28;20032;-74
2021/08/21 00:05:18;;;;;;;17.20;14.35;;;15.00;99.90;;;;;;2098240;28;20005;-74
2021/08/21 00:06:19;;;;;;;17.10;14.65;;;15.10;99.90;;;;;;2099357;28;20031;-75
2021/08/21 00:07:19;;;;;;;17.63;15.05;;;15.10;99.90;;;;;;2099123;28;20088;-73
2021/08/21 00:08:20;;;;;;;16.33;14.50;;;15.00;99.90;;;;;;2100012;28;20044;-71
2021/08/21 00:09:21;;;;;;;16.27;14.57;;;15.00;99.90;;;;;;2098547;28;20013;-72
2021/08/21 00:10:22;;;;;;;16.20;14.30;;;15.00;99.90;;;;;;2096552;28;20047;-70
2021/08/21 00:11:22;;;;;;;16.55;14.50;;;15.00;99.90;;;;;;2083911;28;20044;-71
2021/08/21 00:12:23;;;;;;;17.15;14.05;;;15.00;99.90;;;;;;2083590;28;20034;-71
2021/08/21 00:13:23;;;;;;;16.73;14.55;;;15.00;99.90;;;;;;2089901;28;20041;-73
2021/08/21 00:14:24;;;;;;;17.80;14.90;;;15.00;99.90;;;;;;2089567;28;20056;-74
2021/08/21 00:15:25;;;;;;;16.30;14.50;;;14.90;99.90;;;;;;2089270;28;20087;-73
2021/08/21 00:16:25;;;;;;;16.23;13.98;;;14.90;99.90;;;;;;2089042;28;20025;-72
2021/08/21 00:17:27;;;;;;;18.08;14.13;;;14.90;99.90;;;;;;2088602;28;20036;-72
2021/08/21 00:18:27;;;;;;;15.93;14.20;;;15.00;99.90;;;;;;2089138;28;20032;-72
2021/08/21 00:19:28;;;;;;;17.38;14.68;;;14.90;99.90;;;;;;2080260;28;20108;-71
2021/08/21 00:20:29;;;;;;;16.70;14.48;;;15.00;99.90;;;;;;2080143;28;20041;-72
2021/08/21 00:21:30;;;;;;;17.80;14.55;;;15.00;99.90;;;;;;2089212;28;20516;-72
2021/08/21 00:22:30;;;;;;;16.83;14.30;;;15.00;99.90;;;;;;2089055;28;20037;-72
2021/08/21 00:23:31;;;;;;;17.73;14.60;;;15.00;99.90;;;;;;2088903;28;20037;-71
2021/08/21 00:24:32;;;;;;;16.50;13.98;;;15.00;99.90;;;;;;2088812;28;20039;-72
2021/08/21 00:25:32;;;;;;;16.20;14.00;;;14.90;99.90;;;;;;2089032;28;20499;-74
2021/08/21 00:26:33;;;;;;;16.92;13.95;;;14.90;99.90;;;;;;2089036;28;20531;-75
2021/08/21 00:27:33;;;;;;;15.75;14.05;;;14.90;99.90;;;;;;2079427;28;20485;-76
2021/08/21 00:28:35;;;;;;;17.27;14.27;;;14.90;99.90;;;;;;2088509;28;20122;-71
2021/08/21 00:29:35;;;;;;;18.25;14.93;;;14.90;99.90;;;;;;2088350;28;20048;-73
2021/08/21 00:30:36;;;;;;;18.17;14.90;;;14.90;99.90;;;;;;2071542;28;20033;-72
2021/08/21 00:31:37;;;;;;;18.35;15.38;;;14.90;99.90;;;;;;2080097;28;20025;-72
2021/08/21 00:32:38;;;;;;;18.13;15.05;;;14.90;99.90;;;;;;2088709;28;20492;-72
2021/08/21 00:33:39;;;;;;;16.73;14.27;;;14.90;99.90;;;;;;2096454;28;20546;-74
2021/08/21 00:34:40;;;;;;;16.88;14.90;;;14.80;99.90;;;;;;2096384;28;20051;-72
2021/08/21 00:35:40;;;;;;;16.17;14.48;;;14.80;99.90;;;;;;2096418;28;20101;-72
2021/08/21 00:36:42;;;;;;;17.10;14.27;;;14.80;99.90;;;;;;2096523;28;20597;-72
2021/08/21 00:37:43;;;;;;;16.70;14.32;;;14.80;99.90;;;;;;2095847;28;20029;-73
2021/08/21 00:38:43;;;;;;;17.67;14.25;;;14.80;99.90;;;;;;2096232;28;20044;-72
2021/08/21 00:39:45;;;;;;;16.38;14.27;;;14.80;99.90;;;;;;2097532;28;20027;-73
2021/08/21 00:40:47;;;;;;;17.15;14.68;;;14.80;99.90;;;;;;2089733;28;20039;-72
2021/08/21 00:41:48;;;;;;;17.55;14.70;;;14.80;99.90;;;;;;2081727;28;20037;-73
2021/08/21 00:42:52;;;;;;;17.13;14.77;;;14.80;99.90;;;;;;2090198;28;20528;-72
2021/08/21 00:43:52;;;;;;;18.30;14.80;;;14.80;99.90;;;;;;2090334;28;20032;-72
2021/08/21 00:44:53;;;;;;;19.52;16.15;;;14.80;99.90;;;;;;2097964;28;20090;-74
2021/08/21 00:45:54;;;;;;;17.67;15.30;;;14.80;99.90;;;;;;2098175;28;20032;-72
2021/08/21 00:47:00;;;;;;;18.98;14.90;;;14.80;99.90;;;;;;2090443;28;20029;-72
2021/08/21 00:48:01;;;;;;;19.55;16.65;;;14.70;99.90;;;;;;2081038;28;20258;-74
2021/08/21 00:49:02;;;;;;;19.10;16.98;;;14.80;99.90;;;;;;2081136;28;20092;-74
2021/08/21 00:50:03;;;;;;;18.20;15.75;;;14.80;99.90;;;;;;2081500;28;20029;-74
2021/08/21 00:51:04;;;;;;;18.98;15.55;;;14.70;99.90;;;;;;2073684;28;20018;-74
2021/08/21 00:52:07;;;;;;;17.15;15.27;;;14.70;99.90;;;;;;2082291;28;20517;-73
2021/08/21 00:53:08;;;;;;;18.02;15.27;;;14.70;99.90;;;;;;2075863;28;20032;-74
2021/08/21 00:54:09;;;;;;;17.65;14.80;;;14.70;99.90;;;;;;2076873;28;20061;-75
2021/08/21 00:55:10;;;;;;;18.48;15.68;;;14.70;99.90;;;;;;2082169;28;20025;-74
2021/08/21 00:56:10;;;;;;;17.73;14.93;;;14.70;99.90;;;;;;2090166;28;20025;-75
2021/08/21 00:57:13;;;;;;;19.30;16.25;;;14.70;99.90;;;;;;2089263;28;20025;-73
2021/08/21 00:58:14;;;;;;;18.05;15.77;;;14.70;99.90;;;;;;2081706;28;20428;-75
2021/08/21 00:59:14;;;;;;;18.45;14.77;;;14.70;99.90;;;;;;2073150;28;20113;-75
2021/08/21 01:00:16;;;;;;;16.83;14.55;;;14.70;99.90;;;;;;2081270;28;20033;-75
2021/08/21 01:01:16;;;;;;;19.13;15.38;;;14.70;99.90;;;;;;2081466;28;20036;-74
2021/08/21 01:02:17;;;;;;;17.42;15.15;;;14.70;99.90;;;;;;2090265;28;20048;-74
2021/08/21 01:03:19;;;;;;;18.05;15.52;;;14.70;99.90;;;;;;2081572;28;20109;-74
2021/08/21 01:04:20;;;;;;;17.88;15.27;;;14.60;99.90;;;;;;2081427;28;20036;-75
2021/08/21 01:05:21;;;;;;;16.83;14.50;;;14.60;99.90;;;;;;2089541;28;20543;-75
2021/08/21 01:06:25;;;;;;;18.45;15.38;;;14.60;99.90;;;;;;2081248;28;20029;-72
2021/08/21 01:07:29;;;;;;;18.35;14.60;;;14.60;99.90;;;;;;2072965;28;20038;-72
2021/08/21 01:08:32;;;;;;;17.38;14.52;;;14.60;99.90;;;;;;2081256;28;20037;-72
2021/08/21 01:09:38;;;;;;;17.02;14.70;;;14.60;99.90;;;;;;2081256;28;20060;-74
2021/08/21 01:10:39;;;;;;;16.00;13.82;;;14.60;99.90;;;;;;2081148;28;20080;-72
2021/08/21 01:11:40;;;;;;;16.27;14.15;;;14.60;99.90;;;;;;2081312;28;20095;-73
2021/08/21 01:12:43;;;;;;;18.25;14.88;;;14.60;99.90;;;;;;2081218;28;20409;-73
2021/08/21 01:13:44;;;;;;;16.05;14.30;;;14.60;99.90;;;;;;2089770;28;20028;-73
2021/08/21 01:14:47;;;;;;;16.35;14.55;;;14.60;99.90;;;;;;2097806;28;20067;-73
2021/08/21 01:15:48;;;;;;;17.00;14.05;;;14.60;99.90;;;;;;2089494;28;20533;-73
2021/08/21 01:16:49;;;;;;;16.15;14.05;;;14.60;99.90;;;;;;2081417;28;20032;-72
2021/08/21 01:17:53;;;;;;;16.55;14.40;;;14.60;99.90;;;;;;2080869;28;20088;-74
2021/08/21 01:18:54;;;;;;;18.08;14.07;;;14.50;99.90;;;;;;2080806;28;20043;-74
2021/08/21 01:19:55;;;;;;;18.00;14.50;;;14.50;99.90;;;;;;2089439;28;20021;-72
2021/08/21 01:20:56;;;;;;;16.75;14.25;;;14.50;99.90;;;;;;2081175;28;20044;-73
2021/08/21 01:21:57;;;;;;;16.90;14.75;;;14.50;99.90;;;;;;2081312;28;20564;-72
2021/08/21 01:23:00;;;;;;;16.55;14.02;;;14.50;99.90;;;;;;2089400;28;20025;-72
2021/08/21 01:24:06;;;;;;;16.67;13.55;;;14.50;99.90;;;;;;2072978;28;20032;-72
2021/08/21 01:25:13;;;;;;;16.75;14.48;;;14.50;99.90;;;;;;2082234;28;20037;-72
2021/08/21 01:26:14;;;;;;;16.30;14.27;;;14.50;99.90;;;;;;2097183;28;20124;-72
2021/08/21 01:27:33;;;;;;;17.60;14.50;;;14.40;99.90;;;;;;2080729;28;20067;-72
2021/08/21 01:28:49;;;;;;;17.48;14.30;;;14.40;99.90;;;;;;2072734;28;20108;-72
2021/08/21 01:30:28;;;;;;;16.50;14.40;;;14.40;99.90;;;;;;2069508;28;20026;-72
2021/08/21 01:31:31;;;;;;;19.20;15.38;;;14.40;99.90;;;;;;2064494;28;20034;-72
2021/08/21 01:32:31;;;;;;;17.15;13.95;;;14.40;99.90;;;;;;2064375;28;20402;-73
2021/08/21 01:33:34;;;;;;;18.67;14.45;;;14.40;99.90;;;;;;2064386;28;20030;-73
2021/08/21 01:34:36;;;;;;;19.95;14.68;;;14.40;99.90;;;;;;2064686;28;20409;-71
2021/08/21 01:35:37;;;;;;;16.70;14.30;;;14.40;99.90;;;;;;2064304;28;20455;-72
2021/08/21 01:36:43;;;;;;;17.00;14.18;;;14.40;99.90;;;;;;2089290;28;20032;-73
2021/08/21 01:38:04;;;;;;;17.60;14.55;;;14.40;99.90;;;;;;2060494;28;20031;-71
2021/08/21 01:39:10;;;;;;;16.60;14.15;;;14.30;99.90;;;;;;2085214;28;20041;-72
2021/08/21 01:40:20;;;;;;;16.73;14.32;;;14.40;99.90;;;;;;2081072;28;20033;-72
2021/08/21 01:41:21;;;;;;;17.33;14.63;;;14.40;99.90;;;;;;2080967;28;20448;-72
2021/08/21 01:42:29;;;;;;;18.52;14.63;;;14.40;99.90;;;;;;2080848;28;20060;-73
2021/08/21 01:43:29;;;;;;;15.95;13.85;;;14.40;99.90;;;;;;2080864;28;20065;-72
2021/08/21 01:44:31;;;;;;;16.20;13.90;;;14.40;99.90;;;;;;2089052;28;20025;-72
2021/08/21 01:45:32;;;;;;;16.15;13.80;;;14.40;99.90;;;;;;2089106;28;20474;-72
2021/08/21 01:46:32;;;;;;;16.35;13.52;;;14.40;99.90;;;;;;2089289;28;20033;-71
2021/08/21 01:47:36;;;;;;;16.83;14.30;;;14.40;99.90;;;;;;2088256;28;20025;-72
2021/08/21 01:48:36;;;;;;;17.77;14.00;;;14.30;99.90;;;;;;2072548;28;20033;-71
2021/08/21 01:49:41;;;;;;;17.33;14.10;;;14.40;99.90;;;;;;2080844;28;20018;-73
2021/08/21 01:50:42;;;;;;;18.58;14.80;;;14.30;99.90;;;;;;2089286;28;20507;-72
2021/08/21 01:51:47;;;;;;;16.65;14.82;;;14.30;99.90;;;;;;2088958;28;20029;-72
2021/08/21 01:52:52;;;;;;;16.65;13.98;;;14.30;99.90;;;;;;2073694;28;20094;-72
2021/08/21 01:54:00;;;;;;;16.80;14.23;;;14.30;99.90;;;;;;2073784;28;20159;-72
2021/08/21 01:55:07;;;;;;;16.10;14.25;;;14.30;99.90;;;;;;2081055;28;20032;-73
2021/08/21 01:56:09;;;;;;;18.35;14.98;;;14.30;99.90;;;;;;2080766;28;20143;-73
2021/08/21 01:57:28;;;;;;;17.92;14.80;;;14.30;99.90;;;;;;2091459;28;20037;-71
2021/08/21 01:58:41;;;;;;;15.52;13.85;;;14.30;99.90;;;;;;2084584;28;20492;-73
2021/08/21 02:00:03;;;;;;;18.73;14.40;;;14.30;99.90;;;;;;2083991;28;20440;-72
2021/08/21 02:01:16;;;;;;;15.95;13.60;;;14.30;99.90;;;;;;2089974;28;20064;-74
2021/08/21 02:02:35;;;;;;;17.83;14.32;;;14.30;99.90;;;;;;2089816;28;20045;-72
2021/08/21 02:03:50;;;;;;;15.60;13.90;;;14.30;99.90;;;;;;2080919;28;20036;-71
2021/08/21 02:04:51;;;;;;;15.50;13.15;;;14.30;99.90;;;;;;2080832;28;20040;-72
2021/08/21 02:05:53;;;;;;;16.13;13.23;;;14.30;99.90;;;;;;2089248;28;20049;-72
2021/08/21 02:06:55;;;;;;;17.00;13.43;;;14.30;99.90;;;;;;2088982;28;20033;-73
2021/08/21 02:07:56;;;;;;;16.30;13.48;;;14.20;99.90;;;;;;2080331;28;20037;-73
2021/08/21 02:08:57;;;;;;;17.15;13.70;;;14.30;99.90;;;;;;2072271;28;20033;-72
2021/08/21 02:09:58;;;;;;;16.38;13.77;;;14.20;99.90;;;;;;2080810;28;20021;-72
2021/08/21 02:10:59;;;;;;;16.60;13.90;;;14.20;99.90;;;;;;2080544;28;20028;-72
2021/08/21 02:12:05;;;;;;;16.60;14.18;;;14.20;99.90;;;;;;2080772;28;20101;-73
2021/08/21 02:13:09;;;;;;;16.35;13.40;;;14.20;99.90;;;;;;2080835;28;20029;-73
2021/08/21 02:14:10;;;;;;;16.15;13.85;;;14.10;99.90;;;;;;2080608;28;20028;-72
2021/08/21 02:15:16;;;;;;;15.20;13.30;;;14.10;99.90;;;;;;2088978;28;20017;-72
2021/08/21 02:16:23;;;;;;;16.05;13.30;;;14.10;99.90;;;;;;2081255;28;20025;-72
2021/08/21 02:17:24;;;;;;;15.88;13.25;;;14.10;99.90;;;;;;2072262;28;20030;-74
2021/08/21 02:18:38;;;;;;;15.13;12.90;;;14.10;99.90;;;;;;2088779;28;20017;-74
2021/08/21 02:19:53;;;;;;;15.75;13.68;;;14.10;99.90;;;;;;2086748;28;20148;-71
2021/08/21 02:20:54;;;;;;;16.55;13.68;;;14.10;99.90;;;;;;2072608;28;20056;-73
2021/08/21 02:22:00;;;;;;;14.60;12.93;;;14.00;99.90;;;;;;2080876;28;20033;-72
2021/08/21 02:23:02;;;;;;;16.83;13.50;;;14.00;99.90;;;;;;2080751;28;20022;-72
2021/08/21 02:24:06;;;;;;;14.40;12.90;;;14.00;99.90;;;;;;2080776;28;20069;-72
2021/08/21 02:25:08;;;;;;;17.50;13.65;;;14.00;99.90;;;;;;2089146;28;20483;-74
2021/08/21 02:26:12;;;;;;;15.52;13.88;;;14.00;99.90;;;;;;2088528;28;20029;-72
2021/08/21 02:27:24;;;;;;;18.85;13.30;;;14.00;99.90;;;;;;2080158;28;20033;-73
2021/08/21 02:28:24;;;;;;;15.93;12.98;;;14.00;99.90;;;;;;2081635;28;20025;-74
2021/08/21 02:29:26;;;;;;;15.52;12.90;;;14.00;99.90;;;;;;2080482;28;20120;-72
2021/08/21 02:30:27;;;;;;;14.68;13.05;;;13.90;99.90;;;;;;2080560;28;20087;-73
2021/08/21 02:31:28;;;;;;;15.85;13.10;;;14.00;99.90;;;;;;2081514;28;20032;-72
2021/08/21 02:32:29;;;;;;;15.40;13.32;;;14.00;99.90;;;;;;2082299;28;20048;-73
2021/08/21 02:33:30;;;;;;;16.38;14.27;;;14.00;99.90;;;;;;2082364;28;20105;-72
2021/08/21 02:34:31;;;;;;;15.93;13.35;;;14.00;99.90;;;;;;2090661;28;20025;-72
2021/08/21 02:35:32;;;;;;;17.13;13.40;;;14.00;99.90;;;;;;2098791;28;20021;-72
2021/08/21 02:36:33;;;;;;;15.70;13.45;;;14.00;99.90;;;;;;2098511;28;20082;-72
2021/08/21 02:37:34;;;;;;;16.77;13.93;;;14.00;99.90;;;;;;2080946;28;20167;-71
2021/08/21 02:38:35;;;;;;;17.58;13.77;;;14.00;99.90;;;;;;2080935;28;20026;-72
2021/08/21 02:39:35;;;;;;;16.90;13.73;;;14.00;99.90;;;;;;2080762;28;20168;-72
2021/08/21 02:40:37;;;;;;;14.70;13.10;;;14.00;99.90;;;;;;2072399;28;20034;-72
2021/08/21 02:41:38;;;;;;;15.18;13.30;;;14.10;99.90;;;;;;2080842;28;20026;-72
2021/08/21 02:42:38;;;;;;;14.40;12.60;;;14.10;99.90;;;;;;2089323;28;20169;-73
2021/08/21 02:43:39;;;;;;;16.98;13.20;;;14.10;99.90;;;;;;2089544;28;20060;-72
2021/08/21 02:44:40;;;;;;;15.73;13.10;;;14.10;99.90;;;;;;2089565;28;20025;-72
2021/08/21 02:45:40;;;;;;;16.42;12.85;;;14.10;99.90;;;;;;2089586;28;20396;-73
2021/08/21 02:46:41;;;;;;;14.88;13.15;;;14.10;99.90;;;;;;2089626;28;20530;-71
2021/08/21 02:47:41;;;;;;;16.25;13.20;;;14.10;99.90;;;;;;2080014;28;20037;-72
2021/08/21 02:48:42;;;;;;;17.05;13.13;;;14.10;99.90;;;;;;2080256;28;20032;-71
2021/08/21 02:49:43;;;;;;;16.63;13.18;;;14.10;99.90;;;;;;2080671;28;20095;-74
2021/08/21 02:50:43;;;;;;;14.20;12.55;;;14.10;99.90;;;;;;2089196;28;20021;-71
2021/08/21 02:51:44;;;;;;;13.65;12.02;;;14.10;99.90;;;;;;2089344;28;20037;-72
2021/08/21 02:52:45;;;;;;;14.27;12.65;;;14.00;99.90;;;;;;2096933;28;20071;-72
2021/08/21 02:53:46;;;;;;;15.32;12.60;;;14.00;99.90;;;;;;2088678;28;20483;-72
2021/08/21 02:54:48;;;;;;;14.52;12.48;;;14.00;99.90;;;;;;2080645;28;20481;-72
2021/08/21 02:55:50;;;;;;;13.35;11.88;;;14.00;99.90;;;;;;2072570;28;20030;-72
2021/08/21 02:56:52;;;;;;;15.63;12.70;;;13.90;99.90;;;;;;2080498;28;20057;-72
2021/08/21 02:57:54;;;;;;;14.07;12.63;;;13.90;99.90;;;;;;2088353;28;20028;-72
2021/08/21 02:59:02;;;;;;;14.35;12.85;;;13.80;99.90;;;;;;2087387;28;20036;-72
2021/08/21 03:00:03;;;;;;;14.18;12.45;;;13.80;99.90;;;;;;2088474;28;20461;-72
2021/08/21 03:01:13;;;;;;;15.77;12.65;;;13.80;99.90;;;;;;2087240;28;20369;-71
2021/08/21 03:02:14;;;;;;;15.85;12.57;;;13.80;99.90;;;;;;2079749;28;20056;-72
2021/08/21 03:03:18;;;;;;;15.13;12.45;;;13.80;99.90;;;;;;2072556;28;20489;-72
2021/08/21 03:04:23;;;;;;;15.63;12.68;;;13.80;99.90;;;;;;2080309;28;20033;-72
2021/08/21 03:05:27;;;;;;;14.23;12.55;;;13.70;99.90;;;;;;2080395;28;20033;-72
2021/08/21 03:06:28;;;;;;;14.43;12.30;;;13.80;99.90;;;;;;2080333;28;20092;-72
2021/08/21 03:07:29;;;;;;;15.70;13.10;;;13.80;99.90;;;;;;2079686;28;20124;-72
2021/08/21 03:08:32;;;;;;;14.20;12.32;;;13.80;99.90;;;;;;2080133;28;20026;-72
2021/08/21 03:09:33;;;;;;;16.02;13.20;;;13.80;99.90;;;;;;2088277;28;20495;-72
2021/08/21 03:10:33;;;;;;;16.23;13.65;;;13.80;99.90;;;;;;2088475;28;20040;-71
2021/08/21 03:11:35;;;;;;;14.43;12.93;;;13.80;99.90;;;;;;2080510;28;20041;-72
2021/08/21 03:12:56;;;;;;;13.77;12.25;;;13.80;99.90;;;;;;2083100;28;20261;-73
2021/08/21 03:13:57;;;;;;;13.98;11.90;;;13.70;99.90;;;;;;2080264;28;20608;-72
2021/08/21 03:14:59;;;;;;;13.93;12.13;;;13.70;99.90;;;;;;2080337;28;20033;-73
2021/08/21 03:15:59;;;;;;;14.00;12.15;;;13.80;99.90;;;;;;2072419;28;20080;-72
2021/08/21 03:17:00;;;;;;;13.63;12.20;;;13.70;99.90;;;;;;2072454;28;20540;-72
2021/08/21 03:18:01;;;;;;;14.00;12.05;;;13.70;99.90;;;;;;2079985;28;20378;-74
2021/08/21 03:19:02;;;;;;;16.80;12.07;;;13.70;99.90;;;;;;2088832;28;20073;-74
2021/08/21 03:20:04;;;;;;;15.88;12.43;;;13.70;99.90;;;;;;2096633;28;20070;-75
2021/08/21 03:21:08;;;;;;;13.80;12.32;;;13.70;99.90;;;;;;2088204;28;20032;-75
2021/08/21 03:22:09;;;;;;;13.93;12.07;;;13.70;99.90;;;;;;2080368;28;20456;-75
2021/08/21 03:23:12;;;;;;;14.00;12.50;;;13.70;99.90;;;;;;2096639;28;20043;-74
2021/08/21 03:24:14;;;;;;;14.00;12.43;;;13.60;99.90;;;;;;2088203;28;20485;-74
2021/08/21 03:25:17;;;;;;;14.55;12.93;;;13.60;99.90;;;;;;2088313;28;20571;-74
2021/08/21 03:26:19;;;;;;;15.68;13.50;;;13.60;99.90;;;;;;2079654;28;20040;-75
2021/08/21 03:27:23;;;;;;;15.98;13.43;;;13.60;99.90;;;;;;2079589;28;20037;-74
2021/08/21 03:28:24;;;;;;;15.77;13.23;;;13.60;99.90;;;;;;2088377;28;20040;-73
2021/08/21 03:29:25;;;;;;;16.35;13.32;;;13.60;99.90;;;;;;2088131;28;20546;-74
2021/08/21 03:30:26;;;;;;;15.07;13.48;;;13.60;99.90;;;;;;2079994;28;20036;-73
2021/08/21 03:31:47;;;;;;;;;;;13.60;99.90;;;;;;2083444;28;20487;-74
2021/08/21 03:32:49;;;;;;;15.90;13.43;;;13.60;99.90;;;;;;2079920;28;19959;-74
2021/08/21 03:33:52;;;;;;;15.85;13.27;;;13.60;99.90;;;;;;2080066;28;20033;-74
2021/08/21 03:34:54;;;;;;;14.32;12.60;;;13.50;99.90;;;;;;2088532;28;20029;-74
2021/08/21 03:35:55;;;;;;;14.90;13.30;;;13.60;99.90;;;;;;2080075;28;20435;-74
2021/08/21 03:36:57;;;;;;;14.73;12.82;;;13.60;99.90;;;;;;2080532;28;20083;-75
2021/08/21 03:37:58;;;;;;;14.90;13.30;;;13.60;99.90;;;;;;2087718;28;20025;-75
2021/08/21 03:38:59;;;;;;;14.13;12.63;;;13.50;99.90;;;;;;2079741;28;20029;-75
2021/08/21 03:40:00;;;;;;;14.05;12.48;;;13.50;99.90;;;;;;2071802;28;20037;-74
2021/08/21 03:41:01;;;;;;;14.70;12.93;;;13.50;99.90;;;;;;2080027;28;20025;-75
2021/08/21 03:42:04;;;;;;;14.15;12.45;;;13.50;99.90;;;;;;2080007;28;20052;-74
2021/08/21 03:43:05;;;;;;;14.13;12.63;;;13.50;99.90;;;;;;2072107;28;20034;-75
2021/08/21 03:44:06;;;;;;;14.55;12.13;;;13.50;99.90;;;;;;2071872;28;20508;-74
2021/08/21 03:45:09;;;;;;;14.32;12.38;;;13.50;99.90;;;;;;2080300;28;20045;-74
2021/08/21 03:46:10;;;;;;;16.58;13.15;;;13.50;99.90;;;;;;2088048;28;20056;-74
2021/08/21 03:47:11;;;;;;;14.27;12.75;;;13.50;99.90;;;;;;2079526;28;20480;-73
2021/08/21 03:48:12;;;;;;;14.25;12.75;;;13.50;99.90;;;;;;2080120;28;20074;-75
2021/08/21 03:49:13;;;;;;;15.77;13.75;;;13.50;99.90;;;;;;2088367;28;20179;-74
2021/08/21 03:50:14;;;;;;;14.80;12.77;;;13.50;99.90;;;;;;2096671;28;20067;-74
2021/08/21 03:51:14;;;;;;;17.35;13.85;;;13.50;99.90;;;;;;2080125;28;20564;-75
2021/08/21 03:52:18;;;;;;;15.60;13.63;;;13.50;99.90;;;;;;2072239;28;20030;-75
2021/08/21 03:53:19;;;;;;;14.10;12.48;;;13.50;99.90;;;;;;2080027;28;20091;-75
2021/08/21 03:54:30;;;;;;;16.27;13.40;;;13.40;99.90;;;;;;2080051;28;20575;-75
2021/08/21 03:55:31;;;;;;;15.77;13.10;;;13.40;99.90;;;;;;2080067;28;20041;-74
2021/08/21 03:56:32;;;;;;;15.05;12.63;;;13.40;99.90;;;;;;2096297;28;20024;-75
2021/08/21 03:57:38;;;;;;;14.25;12.57;;;13.40;99.90;;;;;;2087081;28;20021;-75
2021/08/21 03:58:38;;;;;;;14.88;12.90;;;13.40;99.90;;;;;;2079617;28;20492;-71
2021/08/21 03:59:39;;;;;;;14.73;12.80;;;13.40;99.90;;;;;;2079792;28;20505;-75
2021/08/21 04:00:41;;;;;;;14.32;12.77;;;13.40;99.90;;;;;;2071731;28;20112;-75
2021/08/21 04:01:47;;;;;;;14.65;13.05;;;13.40;99.90;;;;;;2079981;28;20048;-75
2021/08/21 04:02:56;;;;;;;14.55;13.02;;;13.40;99.90;;;;;;2089489;28;20025;-74
2021/08/21 04:04:03;;;;;;;14.45;12.45;;;13.40;99.90;;;;;;2087444;28;20025;-73
2021/08/21 04:05:08;;;;;;;16.17;13.10;;;13.40;99.90;;;;;;2079985;28;20030;-74
2021/08/21 04:06:11;;;;;;;14.48;12.38;;;13.40;99.90;;;;;;2088126;28;20092;-74
2021/08/21 04:07:17;;;;;;;14.70;13.02;;;13.40;99.90;;;;;;2079560;28;20021;-74
2021/08/21 04:08:18;;;;;;;15.25;13.15;;;13.40;99.90;;;;;;2079781;28;20033;-74
2021/08/21 04:09:20;;;;;;;15.10;13.20;;;13.40;99.90;;;;;;2071699;28;20030;-75
2021/08/21 04:10:25;;;;;;;15.30;12.70;;;13.40;99.90;;;;;;2079952;28;20140;-75
2021/08/21 04:11:30;;;;;;;16.65;13.57;;;13.40;99.90;;;;;;2088445;28;20056;-73
2021/08/21 04:12:50;;;;;;;;;;;13.50;99.90;;;;;;2093997;28;20117;-75
2021/08/21 04:13:51;;;;;;;15.75;12.75;;;13.40;99.90;;;;;;2079950;28;19909;-75
2021/08/21 04:14:52;;;;;;;15.48;13.02;;;13.40;99.90;;;;;;2080081;28;20084;-75
2021/08/21 04:15:52;;;;;;;15.35;12.77;;;13.50;99.90;;;;;;2079895;28;20036;-74
2021/08/21 04:16:53;;;;;;;15.25;13.43;;;13.50;99.90;;;;;;2080056;28;20099;-75
2021/08/21 04:17:55;;;;;;;16.38;13.07;;;13.50;99.90;;;;;;2079452;28;20428;-74
2021/08/21 04:18:58;;;;;;;15.65;12.48;;;13.50;99.90;;;;;;2079407;28;20463;-73
2021/08/21 04:20:04;;;;;;;15.95;12.93;;;13.50;99.90;;;;;;2088320;28;20052;-74
2021/08/21 04:21:06;;;;;;;16.13;12.95;;;13.50;99.90;;;;;;2087650;28;20025;-74
2021/08/21 04:22:07;;;;;;;15.10;12.60;;;13.50;99.90;;;;;;2079913;28;20029;-74
2021/08/21 04:23:22;;;;;;;14.30;12.10;;;13.60;99.90;;;;;;2079859;28;20033;-74
2021/08/21 04:24:25;;;;;;;13.80;12.15;;;13.50;99.90;;;;;;2079718;28;20129;-74
2021/08/21 04:25:32;;;;;;;13.32;11.93;;;13.60;99.90;;;;;;2088717;28;20033;-73
2021/08/21 04:26:37;;;;;;;14.63;12.80;;;13.60;99.90;;;;;;2087453;28;20033;-74
2021/08/21 04:27:38;;;;;;;13.43;11.77;;;13.60;99.90;;;;;;2087290;28;20519;-74
2021/08/21 04:28:39;;;;;;;15.25;11.80;;;13.60;99.90;;;;;;2087779;28;20044;-75
2021/08/21 04:29:42;;;;;;;14.00;12.07;;;13.60;99.90;;;;;;2079516;28;20037;-74
2021/08/21 04:30:46;;;;;;;13.65;11.75;;;13.60;99.90;;;;;;2072050;28;20551;-74
2021/08/21 04:31:48;;;;;;;13.82;12.27;;;13.60;99.90;;;;;;2079783;28;20029;-73
2021/08/21 04:32:49;;;;;;;15.52;12.88;;;13.70;99.90;;;;;;2088022;28;20110;-74
2021/08/21 04:33:52;;;;;;;14.48;11.95;;;13.70;99.90;;;;;;2088020;28;20029;-74
2021/08/21 04:34:53;;;;;;;13.50;12.05;;;13.70;99.90;;;;;;2088390;28;20477;-74
2021/08/21 04:35:54;;;;;;;14.10;12.02;;;13.70;99.90;;;;;;2088320;28;20067;-75
2021/08/21 04:36:56;;;;;;;13.75;12.25;;;13.70;99.90;;;;;;2088203;28;20389;-74
2021/08/21 04:38:03;;;;;;;12.82;11.23;;;13.80;99.90;;;;;;2087158;28;20036;-74
2021/08/21 04:39:09;;;;;;;12.43;11.13;;;13.80;99.90;;;;;;2079847;28;20034;-74
2021/08/21 04:40:10;;;;;;;13.23;11.52;;;13.80;99.90;;;;;;2079723;28;20494;-75
2021/08/21 04:41:11;;;;;;;12.13;10.63;;;13.80;99.90;;;;;;2080054;28;20049;-73
2021/08/21 04:42:12;;;;;;;12.45;11.15;;;13.90;99.90;;;;;;2088274;28;20415;-73
2021/08/21 04:43:16;;;;;;;11.82;10.63;;;13.90;99.90;;;;;;2088072;28;20037;-74
2021/08/21 04:44:17;;;;;;;11.88;10.55;;;13.90;99.90;;;;;;2079901;28;20044;-74
2021/08/21 04:45:18;;;;;;;12.05;10.75;;;13.90;99.90;;;;;;2079999;28;20531;-74
2021/08/21 04:46:18;;;;;;;14.40;11.00;;;13.90;99.90;;;;;;2079782;28;20030;-74
2021/08/21 04:47:19;;;;;;;12.13;10.85;;;14.00;99.90;;;;;;2079125;28;20128;-74
2021/08/21 04:48:21;;;;;;;13.05;11.43;;;14.00;99.90;;;;;;2088039;28;20104;-74
2021/08/21 04:49:23;;;;;;;14.57;11.45;;;14.00;99.90;;;;;;2087523;28;20381;-74
2021/08/21 04:50:24;;;;;;;12.43;10.82;;;14.00;99.90;;;;;;2079573;28;20026;-74
2021/08/21 04:51:25;;;;;;;14.10;11.38;;;14.10;99.90;;;;;;2071525;28;20053;-72
2021/08/21 04:52:26;;;;;;;12.70;11.13;;;14.10;99.90;;;;;;2079762;28;20120;-72
2021/08/21 04:53:27;;;;;;;12.80;11.40;;;14.10;99.90;;;;;;2079558;28;20029;-72
2021/08/21 04:54:28;;;;;;;13.88;11.23;;;14.10;99.90;;;;;;2079764;28;20115;-72
2021/08/21 04:55:29;;;;;;;12.80;10.93;;;14.20;99.90;;;;;;2079745;28;20018;-71
2021/08/21 04:56:30;;;;;;;12.65;10.90;;;14.20;99.90;;;;;;2079783;28;20029;-73
2021/08/21 04:57:50;;;;;;;12.68;11.38;;;14.30;99.90;;;;;;2082027;28;20127;-74
2021/08/21 04:58:51;;;;;;;13.60;10.40;;;14.30;99.90;;;;;;2095990;28;20082;-71
2021/08/21 04:59:51;;;;;;;13.50;11.00;;;14.30;99.90;;;;;;2087987;28;20435;-72
2021/08/21 05:00:52;;;;;;;11.57;10.38;;;14.30;99.90;;;;;;2079695;28;20564;-71
2021/08/21 05:01:57;;;;;;;12.80;11.00;;;14.30;99.90;;;;;;2072356;28;20133;-73
2021/08/21 05:02:58;;;;;;;13.05;10.75;;;14.40;99.90;;;;;;2079613;28;20032;-73
2021/08/21 05:04:00;;;;;;;13.02;10.30;;;14.40;99.90;;;;;;2079902;28;20018;-72
2021/08/21 05:05:04;;;;;;;11.82;10.63;;;14.40;99.90;;;;;;2079832;28;20033;-73
2021/08/21 05:06:04;;;;;;;12.65;11.15;;;14.40;99.90;;;;;;2079795;28;20116;-72
2021/08/21 05:07:05;;;;;;;11.25;10.05;;;14.50;99.90;;;;;;2079546;28;20090;-73
2021/08/21 05:08:07;;;;;;;11.63;10.43;;;14.50;99.90;;;;;;2087671;28;20028;-74
2021/08/21 05:09:10;;;;;;;11.70;10.23;;;14.60;99.90;;;;;;2087353;28;20029;-74
2021/08/21 05:10:12;;;;;;;10.95;9.85;;;14.70;99.90;;;;;;2079907;28;20021;-73
2021/08/21 05:11:13;;;;;;;11.32;10.15;;;14.80;99.90;;;;;;2079759;28;20022;-75
2021/08/21 05:12:14;;;;;;;11.50;10.30;;;15.00;99.90;;;;;;2079701;28;20013;-76
2021/08/21 05:13:44;;;;;;;10.70;9.57;;;15.20;99.90;;;;;;2080108;28;20013;-73
2021/08/21 05:14:45;;;;;;;10.43;9.07;;;15.60;99.90;;;;;;2079580;28;20105;-73
2021/08/21 05:15:46;;;;;;;10.35;9.25;;;15.80;99.90;;;;;;2079786;28;20611;-73
2021/08/21 05:17:12;;;;;;;11.93;8.73;;;16.10;99.90;;;;;;2079101;28;20025;-72
2021/08/21 05:18:38;;;;;;;9.18;8.25;;;16.40;99.90;;;;;;2090767;28;20665;-70
2021/08/21 05:19:52;;;;;;;10.27;8.75;;;16.70;99.90;;;;;;2087020;28;20033;-72
2021/08/21 05:21:08;;;;;;;9.60;8.60;;;16.90;99.90;;;;;;2079808;28;20543;-73